sensor_id;sensor_type;location;lat;lon;timestamp;pressure;altitude;pressure_sealevel;temperature;humidity
25658;BME280;13517;59.320;18.042;2022-10-14T00:01:26;100869.13;;;8.56;100.00
25658;BME280;13517;59.320;18.042;2022-10-14T00:03:52;100869.25;;;8.53;100.00
25658;BME280;13517;59.320;18.042;2022-10-14T00:06:29;100866.78;;;8.48;100.00
25658;BME280;13517;59.320;18.042;2022-10-14T00:08:55;100865.84;;;8.49;100.00
25658;BME280;13517;59.320;18.042;2022-10-14T00:11:28;100839.66;;;8.35;100.00
25658;BME280;13517;59.320;18.042;2022-10-14T00:13:56;100863.31;;;8.46;100.00
25658;BME280;13517;59.320;18.042;2022-10-14T00:16:33;100862.88;;;8.38;100.00
25658;BME280;13517;59.320;18.042;2022-10-14T00:18:59;100844.34;;;8.31;100.00
25658;BME280;13517;59.320;18.042;2022-10-14T00:21:26;100833.19;;;8.22;100.00
25658;BME280;13517;59.320;18.042;2022-10-14T00:23:52;100816.34;;;8.18;100.00
25658;BME280;13517;59.320;18.042;2022-10-14T00:26:22;100856.69;;;8.36;100.00
25658;BME280;13517;59.320;18.042;2022-10-14T00:28:48;100849.47;;;8.36;100.00
25658;BME280;13517;59.320;18.042;2022-10-14T00:31:14;100854.94;;;8.35;100.00
25658;BME280;13517;59.320;18.042;2022-10-14T00:33:40;100856.84;;;8.32;100.00
25658;BME280;13517;59.320;18.042;2022-10-14T00:36:06;100845.38;;;8.29;100.00
25658;BME280;13517;59.320;18.042;2022-10-14T00:38:33;100830.44;;;8.23;100.00
25658;BME280;13517;59.320;18.042;2022-10-14T00:40:58;100840.06;;;8.27;100.00
25658;BME280;13517;59.320;18.042;2022-10-14T00:43:25;100795.97;;;7.96;100.00
25658;BME280;13517;59.320;18.042;2022-10-14T00:45:51;100833.38;;;8.18;100.00
25658;BME280;13517;59.320;18.042;2022-10-14T00:48:18;100833.53;;;8.15;100.00
25658;BME280;13517;59.320;18.042;2022-10-14T00:50:48;100813.66;;;8.00;100.00
25658;BME280;13517;59.320;18.042;2022-10-14T00:53:14;100818.44;;;7.95;100.00
25658;BME280;13517;59.320;18.042;2022-10-14T00:55:41;100810.38;;;7.95;100.00
25658;BME280;13517;59.320;18.042;2022-10-14T00:58:08;100818.59;;;7.92;100.00
25658;BME280;13517;59.320;18.042;2022-10-14T01:00:35;100835.06;;;8.03;100.00
25658;BME280;13517;59.320;18.042;2022-10-14T01:03:06;100816.06;;;7.89;100.00
25658;BME280;13517;59.320;18.042;2022-10-14T01:05:43;100828.88;;;8.01;100.00
25658;BME280;13517;59.320;18.042;2022-10-14T01:11:01;100837.81;;;8.02;100.00
25658;BME280;13517;59.320;18.042;2022-10-14T01:13:43;100822.88;;;7.96;100.00
25658;BME280;13517;59.320;18.042;2022-10-14T01:16:24;100827.69;;;8.07;100.00
25658;BME280;13517;59.320;18.042;2022-10-14T01:21:55;100827.38;;;7.96;100.00
25658;BME280;13517;59.320;18.042;2022-10-14T01:27:19;100838.75;;;8.01;100.00
25658;BME280;13517;59.320;18.042;2022-10-14T01:35:48;100831.72;;;7.98;100.00
25658;BME280;13517;59.320;18.042;2022-10-14T01:38:19;100831.91;;;7.95;100.00
25658;BME280;13517;59.320;18.042;2022-10-14T01:40:57;100820.56;;;7.88;100.00
25658;BME280;13517;59.320;18.042;2022-10-14T01:43:26;100824.78;;;7.94;100.00
25658;BME280;13517;59.320;18.042;2022-10-14T01:45:53;100820.25;;;7.95;100.00
25658;BME280;13517;59.320;18.042;2022-10-14T01:48:23;100821.28;;;7.92;100.00
25658;BME280;13517;59.320;18.042;2022-10-14T01:50:51;100805.31;;;7.89;100.00
25658;BME280;13517;59.320;18.042;2022-10-14T01:53:23;100815.91;;;7.92;100.00
25658;BME280;13517;59.320;18.042;2022-10-14T01:55:52;100793.97;;;7.82;100.00
25658;BME280;13517;59.320;18.042;2022-10-14T01:58:22;100825.50;;;7.98;100.00
25658;BME280;13517;59.320;18.042;2022-10-14T02:00:49;100808.16;;;7.86;100.00
25658;BME280;13517;59.320;18.042;2022-10-14T02:03:14;100819.41;;;7.94;100.00
25658;BME280;13517;59.320;18.042;2022-10-14T02:05:45;100778.41;;;7.71;100.00
25658;BME280;13517;59.320;18.042;2022-10-14T02:08:35;100808.31;;;7.83;100.00
25658;BME280;13517;59.320;18.042;2022-10-14T02:11:10;100816.06;;;7.89;100.00
25658;BME280;13517;59.320;18.042;2022-10-14T02:17:04;100808.50;;;7.80;100.00
25658;BME280;13517;59.320;18.042;2022-10-14T02:19:38;100805.81;;;7.80;100.00
25658;BME280;13517;59.320;18.042;2022-10-14T02:22:17;100810.06;;;7.84;100.00
25658;BME280;13517;59.320;18.042;2022-10-14T02:24:50;100794.47;;;7.73;100.00
25658;BME280;13517;59.320;18.042;2022-10-14T02:27:19;100810.28;;;7.79;100.00
25658;BME280;13517;59.320;18.042;2022-10-14T02:29:46;100788.56;;;7.66;100.00
25658;BME280;13517;59.320;18.042;2022-10-14T02:32:14;100814.00;;;7.76;100.00
25658;BME280;13517;59.320;18.042;2022-10-14T02:34:42;100801.84;;;7.69;100.00
25658;BME280;13517;59.320;18.042;2022-10-14T02:37:10;100772.75;;;7.60;100.00
25658;BME280;13517;59.320;18.042;2022-10-14T02:39:42;100799.16;;;7.69;100.00
25658;BME280;13517;59.320;18.042;2022-10-14T02:42:08;100783.31;;;7.63;100.00
25658;BME280;13517;59.320;18.042;2022-10-14T02:44:33;100805.94;;;7.76;100.00
25658;BME280;13517;59.320;18.042;2022-10-14T02:46:59;100791.16;;;7.68;100.00
25658;BME280;13517;59.320;18.042;2022-10-14T02:49:24;100780.56;;;7.65;100.00
25658;BME280;13517;59.320;18.042;2022-10-14T02:51:50;100797.09;;;7.74;100.00
25658;BME280;13517;59.320;18.042;2022-10-14T02:54:15;100781.41;;;7.65;100.00
25658;BME280;13517;59.320;18.042;2022-10-14T02:56:41;100779.53;;;7.67;100.00
25658;BME280;13517;59.320;18.042;2022-10-14T02:59:06;100761.81;;;7.63;100.00
25658;BME280;13517;59.320;18.042;2022-10-14T03:01:32;100780.97;;;7.74;100.00
25658;BME280;13517;59.320;18.042;2022-10-14T03:03:57;100761.31;;;7.72;100.00
25658;BME280;13517;59.320;18.042;2022-10-14T03:06:23;100763.88;;;7.75;100.00
25658;BME280;13517;59.320;18.042;2022-10-14T03:08:48;100776.03;;;7.83;100.00
25658;BME280;13517;59.320;18.042;2022-10-14T03:11:14;100778.09;;;7.77;100.00
25658;BME280;13517;59.320;18.042;2022-10-14T03:13:39;100778.91;;;7.80;100.00
25658;BME280;13517;59.320;18.042;2022-10-14T03:16:05;100758.75;;;7.71;100.00
25658;BME280;13517;59.320;18.042;2022-10-14T03:18:30;100762.13;;;7.74;100.00
25658;BME280;13517;59.320;18.042;2022-10-14T03:20:56;100764.00;;;7.72;100.00
25658;BME280;13517;59.320;18.042;2022-10-14T03:23:21;100785.00;;;7.83;100.00
25658;BME280;13517;59.320;18.042;2022-10-14T03:25:47;100763.88;;;7.75;100.00
25658;BME280;13517;59.320;18.042;2022-10-14T03:28:12;100761.25;;;7.74;100.00
25658;BME280;13517;59.320;18.042;2022-10-14T03:30:38;100773.28;;;7.84;100.00
25658;BME280;13517;59.320;18.042;2022-10-14T03:33:04;100771.44;;;7.85;100.00
25658;BME280;13517;59.320;18.042;2022-10-14T03:35:29;100736.53;;;7.67;100.00
25658;BME280;13517;59.320;18.042;2022-10-14T03:37:54;100770.41;;;7.87;100.00
25658;BME280;13517;59.320;18.042;2022-10-14T03:40:21;100748.69;;;7.74;100.00
25658;BME280;13517;59.320;18.042;2022-10-14T03:42:46;100742.50;;;7.72;100.00
25658;BME280;13517;59.320;18.042;2022-10-14T03:45:12;100757.41;;;7.80;100.00
25658;BME280;13517;59.320;18.042;2022-10-14T03:47:37;100761.50;;;7.87;100.00
25658;BME280;13517;59.320;18.042;2022-10-14T03:50:03;100747.50;;;7.80;100.00
25658;BME280;13517;59.320;18.042;2022-10-14T03:52:30;100713.59;;;7.60;100.00
25658;BME280;13517;59.320;18.042;2022-10-14T03:54:55;100757.94;;;7.86;100.00
25658;BME280;13517;59.320;18.042;2022-10-14T03:57:21;100737.22;;;7.71;100.00
25658;BME280;13517;59.320;18.042;2022-10-14T03:59:46;100750.88;;;7.84;100.00
25658;BME280;13517;59.320;18.042;2022-10-14T04:02:12;100732.56;;;7.74;100.00
25658;BME280;13517;59.320;18.042;2022-10-14T04:04:37;100725.06;;;7.63;100.00
25658;BME280;13517;59.320;18.042;2022-10-14T04:07:02;100738.78;;;7.75;100.00
25658;BME280;13517;59.320;18.042;2022-10-14T04:09:28;100737.13;;;7.72;100.00
25658;BME280;13517;59.320;18.042;2022-10-14T04:11:53;100724.16;;;7.63;100.00
25658;BME280;13517;59.320;18.042;2022-10-14T04:14:22;100710.50;;;7.50;100.00
25658;BME280;13517;59.320;18.042;2022-10-14T04:16:47;100728.00;;;7.59;100.00
25658;BME280;13517;59.320;18.042;2022-10-14T04:19:13;100729.97;;;7.55;100.00
25658;BME280;13517;59.320;18.042;2022-10-14T04:21:38;100726.72;;;7.48;100.00
25658;BME280;13517;59.320;18.042;2022-10-14T04:24:04;100736.50;;;7.49;100.00
25658;BME280;13517;59.320;18.042;2022-10-14T04:26:29;100713.75;;;7.39;100.00
25658;BME280;13517;59.320;18.042;2022-10-14T04:28:54;100747.56;;;7.43;100.00
25658;BME280;13517;59.320;18.042;2022-10-14T04:31:20;100715.34;;;7.26;100.00
25658;BME280;13517;59.320;18.042;2022-10-14T04:33:47;100719.13;;;7.21;100.00
25658;BME280;13517;59.320;18.042;2022-10-14T04:36:12;100745.53;;;7.31;100.00
25658;BME280;13517;59.320;18.042;2022-10-14T04:38:38;100728.28;;;7.17;100.00
25658;BME280;13517;59.320;18.042;2022-10-14T04:41:03;100728.28;;;7.17;100.00
25658;BME280;13517;59.320;18.042;2022-10-14T04:43:29;100732.97;;;7.14;100.00
25658;BME280;13517;59.320;18.042;2022-10-14T04:45:54;100711.06;;;7.04;100.00
25658;BME280;13517;59.320;18.042;2022-10-14T04:48:19;100723.88;;;7.16;100.00
25658;BME280;13517;59.320;18.042;2022-10-14T04:50:48;100729.00;;;7.21;100.00
25658;BME280;13517;59.320;18.042;2022-10-14T04:53:13;100711.38;;;7.15;100.00
25658;BME280;13517;59.320;18.042;2022-10-14T04:55:39;100722.44;;;7.27;100.00
25658;BME280;13517;59.320;18.042;2022-10-14T04:58:04;100730.28;;;7.31;100.00
25658;BME280;13517;59.320;18.042;2022-10-14T05:00:29;100720.13;;;7.19;100.00
25658;BME280;13517;59.320;18.042;2022-10-14T05:02:55;100725.78;;;7.32;100.00
25658;BME280;13517;59.320;18.042;2022-10-14T05:05:20;100726.63;;;7.32;100.00
25658;BME280;13517;59.320;18.042;2022-10-14T05:07:46;100697.63;;;7.21;100.00
25658;BME280;13517;59.320;18.042;2022-10-14T05:10:11;100719.28;;;7.36;100.00
25658;BME280;13517;59.320;18.042;2022-10-14T05:12:37;100714.16;;;7.31;100.00
25658;BME280;13517;59.320;18.042;2022-10-14T05:15:04;100702.84;;;7.25;100.00
25658;BME280;13517;59.320;18.042;2022-10-14T05:17:30;100703.94;;;7.20;100.00
25658;BME280;13517;59.320;18.042;2022-10-14T05:19:56;100721.50;;;7.28;100.00
25658;BME280;13517;59.320;18.042;2022-10-14T05:22:22;100720.72;;;7.26;100.00
25658;BME280;13517;59.320;18.042;2022-10-14T05:24:47;100713.03;;;7.18;100.00
25658;BME280;13517;59.320;18.042;2022-10-14T05:27:12;100721.81;;;7.21;100.00
25658;BME280;13517;59.320;18.042;2022-10-14T05:29:38;100712.31;;;7.14;100.00
25658;BME280;13517;59.320;18.042;2022-10-14T05:32:03;100691.31;;;7.05;100.00
25658;BME280;13517;59.320;18.042;2022-10-14T05:34:29;100714.94;;;7.16;100.00
25658;BME280;13517;59.320;18.042;2022-10-14T05:36:54;100698.41;;;7.06;100.00
25658;BME280;13517;59.320;18.042;2022-10-14T05:39:20;100720.06;;;7.20;100.00
25658;BME280;13517;59.320;18.042;2022-10-14T05:41:45;100701.97;;;7.06;100.00
25658;BME280;13517;59.320;18.042;2022-10-14T05:44:11;100716.66;;;7.17;100.00
25658;BME280;13517;59.320;18.042;2022-10-14T05:46:36;100701.75;;;7.11;100.00
25658;BME280;13517;59.320;18.042;2022-10-14T05:49:02;100694.63;;;7.10;100.00
25658;BME280;13517;59.320;18.042;2022-10-14T05:51:30;100695.47;;;7.11;100.00
25658;BME280;13517;59.320;18.042;2022-10-14T05:53:57;100714.38;;;7.27;100.00
25658;BME280;13517;59.320;18.042;2022-10-14T05:56:22;100683.72;;;7.13;100.00
25658;BME280;13517;59.320;18.042;2022-10-14T05:58:48;100709.97;;;7.26;100.00
25658;BME280;13517;59.320;18.042;2022-10-14T06:01:13;100700.94;;;7.27;100.00
25658;BME280;13517;59.320;18.042;2022-10-14T06:03:39;100697.63;;;7.21;100.00
25658;BME280;13517;59.320;18.042;2022-10-14T06:06:04;100710.69;;;7.29;100.00
25658;BME280;13517;59.320;18.042;2022-10-14T06:08:29;100694.94;;;7.21;100.00
25658;BME280;13517;59.320;18.042;2022-10-14T06:10:55;100685.00;;;7.24;100.00
25658;BME280;13517;59.320;18.042;2022-10-14T06:13:21;100700.47;;;7.36;100.00
25658;BME280;13517;59.320;18.042;2022-10-14T06:15:46;100672.13;;;7.13;100.00
25658;BME280;13517;59.320;18.042;2022-10-14T06:18:12;100688.47;;;7.26;100.00
25658;BME280;13517;59.320;18.042;2022-10-14T06:20:38;100688.28;;;7.29;100.00
25658;BME280;13517;59.320;18.042;2022-10-14T06:23:03;100698.03;;;7.31;100.00
25658;BME280;13517;59.320;18.042;2022-10-14T06:25:29;100700.78;;;7.30;100.00
25658;BME280;13517;59.320;18.042;2022-10-14T06:28:01;100715.66;;;7.37;100.00
25658;BME280;13517;59.320;18.042;2022-10-14T06:30:26;100710.38;;;7.35;100.00
25658;BME280;13517;59.320;18.042;2022-10-14T06:32:52;100728.94;;;7.40;100.00
25658;BME280;13517;59.320;18.042;2022-10-14T06:35:18;100716.44;;;7.39;100.00
25658;BME280;13517;59.320;18.042;2022-10-14T06:37:44;100711.38;;;7.33;100.00
25658;BME280;13517;59.320;18.042;2022-10-14T06:40:10;100712.16;;;7.35;100.00
25658;BME280;13517;59.320;18.042;2022-10-14T06:42:35;100691.78;;;7.31;100.00
25658;BME280;13517;59.320;18.042;2022-10-14T06:45:01;100703.22;;;7.52;100.00
25658;BME280;13517;59.320;18.042;2022-10-14T06:47:26;100705.44;;;7.61;100.00
25658;BME280;13517;59.320;18.042;2022-10-14T06:49:51;100710.72;;;7.81;100.00
25658;BME280;13517;59.320;18.042;2022-10-14T06:52:17;100705.09;;;7.85;100.00
25658;BME280;13517;59.320;18.042;2022-10-14T06:54:42;100708.94;;;7.97;100.00
25658;BME280;13517;59.320;18.042;2022-10-14T06:57:08;100709.31;;;8.07;100.00
25658;BME280;13517;59.320;18.042;2022-10-14T06:59:33;100704.91;;;8.22;100.00
25658;BME280;13517;59.320;18.042;2022-10-14T07:01:58;100704.66;;;8.27;100.00
25658;BME280;13517;59.320;18.042;2022-10-14T07:04:24;100676.00;;;8.26;100.00
25658;BME280;13517;59.320;18.042;2022-10-14T07:06:49;100708.13;;;8.45;100.00
25658;BME280;13517;59.320;18.042;2022-10-14T07:09:16;100702.91;;;8.42;100.00
25658;BME280;13517;59.320;18.042;2022-10-14T07:11:41;100665.66;;;8.18;100.00
25658;BME280;13517;59.320;18.042;2022-10-14T07:14:07;100701.50;;;8.35;100.00
25658;BME280;13517;59.320;18.042;2022-10-14T07:16:33;100690.66;;;8.20;100.00
25658;BME280;13517;59.320;18.042;2022-10-14T07:18:58;100693.25;;;8.22;100.00
25658;BME280;13517;59.320;18.042;2022-10-14T07:21:24;100687.25;;;8.16;100.00
25658;BME280;13517;59.320;18.042;2022-10-14T07:23:49;100697.75;;;8.21;100.00
25658;BME280;13517;59.320;18.042;2022-10-14T07:26:14;100688.84;;;8.21;100.00
25658;BME280;13517;59.320;18.042;2022-10-14T07:28:40;100682.13;;;8.12;100.00
25658;BME280;13517;59.320;18.042;2022-10-14T07:31:07;100702.81;;;8.27;100.00
25658;BME280;13517;59.320;18.042;2022-10-14T07:33:34;100709.00;;;8.29;100.00
25658;BME280;13517;59.320;18.042;2022-10-14T07:36:05;100694.84;;;8.26;100.00
25658;BME280;13517;59.320;18.042;2022-10-14T07:38:31;100673.53;;;8.21;100.00
25658;BME280;13517;59.320;18.042;2022-10-14T07:41:06;100702.81;;;8.27;100.00
25658;BME280;13517;59.320;18.042;2022-10-14T07:43:33;100704.53;;;8.28;100.00
25658;BME280;13517;59.320;18.042;2022-10-14T07:46:02;100712.97;;;8.38;100.00
25658;BME280;13517;59.320;18.042;2022-10-14T07:48:30;100716.38;;;8.42;100.00
25658;BME280;13517;59.320;18.042;2022-10-14T07:50:56;100703.88;;;8.41;100.00
25658;BME280;13517;59.320;18.042;2022-10-14T07:53:22;100700.06;;;8.45;100.00
25658;BME280;13517;59.320;18.042;2022-10-14T07:55:47;100687.72;;;8.41;100.00
25658;BME280;13517;59.320;18.042;2022-10-14T07:58:24;100699.75;;;8.51;100.00
25658;BME280;13517;59.320;18.042;2022-10-14T08:00:50;100701.13;;;8.58;100.00
25658;BME280;13517;59.320;18.042;2022-10-14T08:03:18;100701.91;;;8.61;100.00
25658;BME280;13517;59.320;18.042;2022-10-14T08:05:43;100718.22;;;8.74;100.00
25658;BME280;13517;59.320;18.042;2022-10-14T08:08:10;100697.91;;;8.68;100.00
25658;BME280;13517;59.320;18.042;2022-10-14T08:10:36;100724.72;;;8.85;100.00
25658;BME280;13517;59.320;18.042;2022-10-14T08:13:02;100712.81;;;8.90;100.00
25658;BME280;13517;59.320;18.042;2022-10-14T08:15:33;100697.97;;;8.82;100.00
25658;BME280;13517;59.320;18.042;2022-10-14T08:17:58;100702.81;;;8.92;100.00
25658;BME280;13517;59.320;18.042;2022-10-14T08:20:24;100711.34;;;9.00;100.00
25658;BME280;13517;59.320;18.042;2022-10-14T08:22:50;100714.53;;;9.07;100.00
25658;BME280;13517;59.320;18.042;2022-10-14T08:25:15;100695.19;;;9.00;100.00
25658;BME280;13517;59.320;18.042;2022-10-14T08:27:40;100706.38;;;9.08;100.00
25658;BME280;13517;59.320;18.042;2022-10-14T08:30:06;100700.88;;;9.10;100.00
25658;BME280;13517;59.320;18.042;2022-10-14T08:32:32;100707.75;;;9.16;100.00
25658;BME280;13517;59.320;18.042;2022-10-14T08:34:57;100705.38;;;9.25;100.00
25658;BME280;13517;59.320;18.042;2022-10-14T08:37:23;100694.75;;;9.22;100.00
25658;BME280;13517;59.320;18.042;2022-10-14T08:39:48;100708.28;;;9.37;100.00
25658;BME280;13517;59.320;18.042;2022-10-14T08:45:18;100702.50;;;9.43;100.00
25658;BME280;13517;59.320;18.042;2022-10-14T08:47:45;100691.13;;;9.38;100.00
25658;BME280;13517;59.320;18.042;2022-10-14T08:50:43;100717.44;;;9.49;100.00
25658;BME280;13517;59.320;18.042;2022-10-14T08:53:15;100712.66;;;9.54;100.00
25658;BME280;13517;59.320;18.042;2022-10-14T08:55:46;100689.81;;;9.45;100.00
25658;BME280;13517;59.320;18.042;2022-10-14T09:00:47;100720.75;;;9.68;100.00
25658;BME280;13517;59.320;18.042;2022-10-14T09:03:27;100718.66;;;9.74;100.00
25658;BME280;13517;59.320;18.042;2022-10-14T09:06:11;100691.28;;;9.65;100.00
25658;BME280;13517;59.320;18.042;2022-10-14T09:08:43;100718.47;;;9.91;100.00
25658;BME280;13517;59.320;18.042;2022-10-14T09:11:13;100711.94;;;9.95;100.00
25658;BME280;13517;59.320;18.042;2022-10-14T09:13:42;100697.09;;;10.03;100.00
25658;BME280;13517;59.320;18.042;2022-10-14T09:16:29;100716.94;;;10.31;100.00
25658;BME280;13517;59.320;18.042;2022-10-14T09:18:58;100714.22;;;10.60;100.00
25658;BME280;13517;59.320;18.042;2022-10-14T09:21:34;100717.22;;;10.83;100.00
25658;BME280;13517;59.320;18.042;2022-10-14T09:24:24;100707.44;;;10.95;100.00
25658;BME280;13517;59.320;18.042;2022-10-14T09:26:50;100703.66;;;10.97;100.00
25658;BME280;13517;59.320;18.042;2022-10-14T09:31:49;100709.78;;;11.14;100.00
25658;BME280;13517;59.320;18.042;2022-10-14T09:34:24;100698.63;;;11.06;100.00
25658;BME280;13517;59.320;18.042;2022-10-14T09:36:53;100719.22;;;11.21;100.00
25658;BME280;13517;59.320;18.042;2022-10-14T09:39:18;100710.31;;;11.19;100.00
25658;BME280;13517;59.320;18.042;2022-10-14T09:41:48;100716.38;;;11.23;100.00
25658;BME280;13517;59.320;18.042;2022-10-14T09:44:20;100711.44;;;11.29;100.00
25658;BME280;13517;59.320;18.042;2022-10-14T09:46:56;100714.41;;;11.39;100.00
25658;BME280;13517;59.320;18.042;2022-10-14T09:49:32;100708.25;;;11.50;100.00
25658;BME280;13517;59.320;18.042;2022-10-14T09:51:59;100701.34;;;11.59;100.00
25658;BME280;13517;59.320;18.042;2022-10-14T09:54:27;100707.16;;;11.66;100.00
25658;BME280;13517;59.320;18.042;2022-10-14T09:57:04;100708.34;;;11.62;100.00
25658;BME280;13517;59.320;18.042;2022-10-14T09:59:31;100698.50;;;11.61;100.00
25658;BME280;13517;59.320;18.042;2022-10-14T10:02:01;100677.72;;;11.48;100.00
25658;BME280;13517;59.320;18.042;2022-10-14T10:04:40;100681.81;;;11.41;100.00
25658;BME280;13517;59.320;18.042;2022-10-14T10:07:30;100687.66;;;11.35;100.00
25658;BME280;13517;59.320;18.042;2022-10-14T10:09:58;100663.19;;;11.23;100.00
25658;BME280;13517;59.320;18.042;2022-10-14T10:12:29;100683.84;;;11.24;100.00
25658;BME280;13517;59.320;18.042;2022-10-14T10:15:00;100692.72;;;11.26;100.00
25658;BME280;13517;59.320;18.042;2022-10-14T10:17:30;100697.25;;;11.13;100.00
25658;BME280;13517;59.320;18.042;2022-10-14T10:20:28;100690.44;;;11.20;100.00
25658;BME280;13517;59.320;18.042;2022-10-14T10:23:23;100689.56;;;11.20;100.00
25658;BME280;13517;59.320;18.042;2022-10-14T10:25:53;100671.94;;;11.14;100.00
25658;BME280;13517;59.320;18.042;2022-10-14T10:28:25;100687.75;;;11.20;100.00
25658;BME280;13517;59.320;18.042;2022-10-14T10:31:02;100687.75;;;11.20;100.00
25658;BME280;13517;59.320;18.042;2022-10-14T10:33:49;100676.16;;;11.18;100.00
25658;BME280;13517;59.320;18.042;2022-10-14T10:36:26;100658.09;;;11.06;100.00
25658;BME280;13517;59.320;18.042;2022-10-14T10:39:19;100686.97;;;11.18;100.00
25658;BME280;13517;59.320;18.042;2022-10-14T10:55:12;100683.66;;;11.27;100.00
25658;BME280;13517;59.320;18.042;2022-10-14T10:58:19;100676.84;;;11.35;100.00
25658;BME280;13517;59.320;18.042;2022-10-14T11:01:28;100673.81;;;11.39;100.00
25658;BME280;13517;59.320;18.042;2022-10-14T11:04:25;100683.16;;;11.48;100.00
25658;BME280;13517;59.320;18.042;2022-10-14T11:07:07;100681.28;;;11.62;100.00
25658;BME280;13517;59.320;18.042;2022-10-14T11:12:50;100681.41;;;11.73;100.00
25658;BME280;13517;59.320;18.042;2022-10-14T11:18:13;100665.81;;;11.90;100.00
25658;BME280;13517;59.320;18.042;2022-10-14T11:21:04;100663.63;;;12.08;100.00
25658;BME280;13517;59.320;18.042;2022-10-14T11:24:12;100680.19;;;12.29;100.00
25658;BME280;13517;59.320;18.042;2022-10-14T11:32:03;100679.41;;;12.40;100.00
25658;BME280;13517;59.320;18.042;2022-10-14T11:34:52;100677.00;;;12.48;100.00
25658;BME280;13517;59.320;18.042;2022-10-14T11:40:13;100667.91;;;12.74;100.00
25658;BME280;13517;59.320;18.042;2022-10-14T11:48:26;100650.78;;;12.98;100.00
25658;BME280;13517;59.320;18.042;2022-10-14T11:51:01;100637.94;;;13.00;100.00
25658;BME280;13517;59.320;18.042;2022-10-14T11:56:51;100653.50;;;13.09;98.55
25658;BME280;13517;59.320;18.042;2022-10-14T11:59:26;100656.47;;;13.17;100.00
25658;BME280;13517;59.320;18.042;2022-10-14T12:01:59;100640.88;;;12.97;100.00
25658;BME280;13517;59.320;18.042;2022-10-14T12:04:30;100661.75;;;13.07;100.00
25658;BME280;13517;59.320;18.042;2022-10-14T12:07:19;100643.84;;;12.93;98.80
25658;BME280;13517;59.320;18.042;2022-10-14T12:09:56;100658.50;;;12.91;99.71
25658;BME280;13517;59.320;18.042;2022-10-14T12:12:24;100633.75;;;12.71;99.02
25658;BME280;13517;59.320;18.042;2022-10-14T12:14:55;100657.56;;;12.79;99.10
25658;BME280;13517;59.320;18.042;2022-10-14T12:19:56;100650.78;;;12.49;97.59
25658;BME280;13517;59.320;18.042;2022-10-14T12:22:27;100627.81;;;12.42;100.00
25658;BME280;13517;59.320;18.042;2022-10-14T12:24:58;100645.34;;;12.49;100.00
25658;BME280;13517;59.320;18.042;2022-10-14T12:27:26;100625.03;;;12.30;100.00
25658;BME280;13517;59.320;18.042;2022-10-14T12:29:53;100650.59;;;12.39;100.00
25658;BME280;13517;59.320;18.042;2022-10-14T12:32:28;100634.59;;;12.23;100.00
25658;BME280;13517;59.320;18.042;2022-10-14T12:34:59;100620.31;;;12.08;100.00
25658;BME280;13517;59.320;18.042;2022-10-14T12:45:22;100627.91;;;12.16;100.00
25658;BME280;13517;59.320;18.042;2022-10-14T12:50:40;100611.66;;;12.16;100.00
25658;BME280;13517;59.320;18.042;2022-10-14T12:53:21;100625.28;;;12.27;100.00
25658;BME280;13517;59.320;18.042;2022-10-14T12:55:51;100624.59;;;12.36;100.00
25658;BME280;13517;59.320;18.042;2022-10-14T12:58:23;100592.78;;;12.14;100.00
25658;BME280;13517;59.320;18.042;2022-10-14T13:00:54;100616.47;;;12.36;100.00
25658;BME280;13517;59.320;18.042;2022-10-14T13:03:24;100615.06;;;12.31;100.00
25658;BME280;13517;59.320;18.042;2022-10-14T13:05:51;100621.34;;;12.31;100.00
25658;BME280;13517;59.320;18.042;2022-10-14T13:11:07;100633.53;;;12.50;100.00
25658;BME280;13517;59.320;18.042;2022-10-14T13:16:08;100632.53;;;12.51;100.00
25658;BME280;13517;59.320;18.042;2022-10-14T13:18:47;100629.13;;;12.36;100.00
25658;BME280;13517;59.320;18.042;2022-10-14T13:24:15;100622.41;;;12.42;100.00
25658;BME280;13517;59.320;18.042;2022-10-14T13:32:12;100619.25;;;12.48;100.00
25658;BME280;13517;59.320;18.042;2022-10-14T13:37:42;100608.88;;;12.42;100.00
25658;BME280;13517;59.320;18.042;2022-10-14T13:42:43;100621.00;;;12.36;100.00
25658;BME280;13517;59.320;18.042;2022-10-14T13:45:13;100599.22;;;12.37;100.00
25658;BME280;13517;59.320;18.042;2022-10-14T13:47:41;100595.78;;;12.35;100.00
25658;BME280;13517;59.320;18.042;2022-10-14T13:50:10;100587.13;;;12.30;100.00
25658;BME280;13517;59.320;18.042;2022-10-14T13:52:37;100602.28;;;12.33;100.00
25658;BME280;13517;59.320;18.042;2022-10-14T13:57:30;100604.06;;;12.21;100.00
25658;BME280;13517;59.320;18.042;2022-10-14T13:59:55;100593.56;;;12.16;100.00
25658;BME280;13517;59.320;18.042;2022-10-14T14:02:24;100601.81;;;12.15;100.00
25658;BME280;13517;59.320;18.042;2022-10-14T14:04:58;100612.53;;;12.16;100.00
25658;BME280;13517;59.320;18.042;2022-10-14T14:07:31;100601.59;;;12.05;100.00
25658;BME280;13517;59.320;18.042;2022-10-14T14:10:04;100615.03;;;12.06;100.00
25658;BME280;13517;59.320;18.042;2022-10-14T14:12:30;100604.72;;;11.98;100.00
25658;BME280;13517;59.320;18.042;2022-10-14T14:14:57;100599.44;;;11.84;100.00
25658;BME280;13517;59.320;18.042;2022-10-14T14:17:24;100590.69;;;11.80;100.00
25658;BME280;13517;59.320;18.042;2022-10-14T14:19:51;100593.16;;;11.83;100.00
25658;BME280;13517;59.320;18.042;2022-10-14T14:22:22;100605.31;;;11.91;100.00
25658;BME280;13517;59.320;18.042;2022-10-14T14:24:50;100603.09;;;11.96;100.00
25658;BME280;13517;59.320;18.042;2022-10-14T14:27:17;100601.16;;;11.98;100.00